| time (UTC) | temp C | wind direction | speed KPH | gust KPH | rain 1hr cm | rain 24hr cm | rain mn cm | humidity % | barometer mb |
| 20260906220104 | 24 | 194 | 9.7 | 32.2 | 0.00 | 0.00 | 0.00 | 31 | 1028.0 |
| 20260906214558 | 24 | 172 | 6.4 | 30.6 | 0.00 | 0.00 | 0.00 | 30 | 1028.3 |
| 20260906213057 | 24 | 179 | 8.0 | 32.2 | 0.00 | 0.00 | 0.00 | 30 | 1028.6 |
| 20260906211554 | 24 | 157 | 17.7 | 30.6 | 0.00 | 0.00 | 0.00 | 27 | 1028.5 |
| 20260906210106 | 24 | 153 | 17.7 | 33.8 | 0.00 | 0.00 | 0.00 | 28 | 1028.6 |
| 20260906204602 | 23 | 160 | 14.5 | 29.0 | 0.00 | 0.00 | 0.00 | 28 | 1028.8 |
| 20260906203059 | 23 | 169 | 8.0 | 33.8 | 0.00 | 0.00 | 0.00 | 29 | 1028.8 |
| 20260906201552 | 23 | 151 | 14.5 | 32.2 | 0.00 | 0.00 | 0.00 | 31 | 1028.8 |
| 20260906194556 | 23 | 237 | 9.7 | 22.5 | 0.00 | 0.00 | 0.00 | 30 | 1029.1 |
| 20260906193101 | 23 | 169 | 12.9 | 33.8 | 0.00 | 0.00 | 0.00 | 29 | 1029.4 |
| 20260906191552 | 23 | 163 | 11.3 | 25.7 | 0.00 | 0.00 | 0.00 | 30 | 1029.6 |
| 20260906190058 | 23 | 194 | 8.0 | 20.9 | 0.00 | 0.00 | 0.00 | 30 | 1029.5 |
| 20260906184606 | 22 | 0 | 8.0 | 29.0 | 0.00 | 0.00 | 0.00 | 30 | 1029.8 |
| 20260906183054 | 22 | 219 | 4.8 | 17.7 | 0.00 | 0.00 | 0.00 | 34 | 1030.0 |
| 20260906181602 | 22 | 40 | 6.4 | 24.1 | 0.00 | 0.00 | 0.00 | 35 | 1030.2 |
| 20260906180105 | 22 | 180 | 11.3 | 20.9 | 0.00 | 0.00 | 0.00 | 36 | 1030.4 |
| 20260906174551 | 22 | 189 | 9.7 | 16.1 | 0.00 | 0.00 | 0.00 | 36 | 1030.6 |
| 20260906173105 | 21 | 182 | 9.7 | 17.7 | 0.00 | 0.00 | 0.00 | 37 | 1031.0 |
| 20260906171603 | 21 | 196 | 6.4 | 16.1 | 0.00 | 0.00 | 0.00 | 37 | 1031.1 |
| 20260906170120 | 21 | 113 | 8.0 | 19.3 | 0.00 | 0.00 | 0.00 | 38 | 1031.4 |
| 20260906164552 | 20 | 227 | 8.0 | 19.3 | 0.00 | 0.00 | 0.00 | 39 | 1031.3 |
| 20260906163115 | 20 | 164 | 6.4 | 16.1 | 0.00 | 0.00 | 0.00 | 42 | 1031.2 |
| 20260906161558 | 20 | 184 | 4.8 | 12.9 | 0.00 | 0.00 | 0.00 | 43 | 1031.2 |
| 20260906160059 | 20 | 98 | 6.4 | 16.1 | 0.00 | 0.00 | 0.00 | 43 | 1031.1 |
| 20260906154553 | 20 | 299 | 3.2 | 11.3 | 0.00 | 0.00 | 0.00 | 42 | 1030.9 |
| 20260906153059 | 19 | 278 | 1.6 | 8.0 | 0.00 | 0.00 | 0.00 | 45 | 1030.9 |
| 20260906151600 | 18 | 156 | 4.8 | 11.3 | 0.00 | 0.00 | 0.00 | 49 | 1031.0 |
| 20260906150106 | 18 | 190 | 4.8 | 8.0 | 0.00 | 0.00 | 0.00 | 50 | 1030.9 |
| 20260906144551 | 18 | 166 | 1.6 | 6.4 | 0.00 | 0.00 | 0.00 | 52 | 1030.7 |
| 20260906143059 | 18 | 0 | 0.0 | 0.0 | 0.00 | 0.00 | 0.00 | 53 | 1030.7 |
| 20260906141553 | 17 | 0 | 0.0 | 3.2 | 0.00 | 0.00 | 0.00 | 56 | 1030.7 |
| 20260906140059 | 16 | 0 | 0.0 | 8.0 | 0.00 | 0.00 | 0.00 | 61 | 1030.6 |
| 20260906134558 | 14 | 34 | 6.4 | 9.7 | 0.00 | 0.00 | 0.00 | 62 | 1030.6 |
| 20260906133117 | 13 | 0 | 0.0 | 1.6 | 0.00 | 0.00 | 0.00 | 66 | 1030.4 |
| 20260906131556 | 12 | 0 | 0.0 | 1.6 | 0.00 | 0.00 | 0.00 | 64 | 1030.3 |
| 20260906130107 | 13 | 25 | 0.0 | 3.2 | 0.00 | 0.00 | 0.00 | 61 | 1030.2 |
| 20260906124603 | 13 | 0 | 0.0 | 4.8 | 0.00 | 0.00 | 0.00 | 62 | 1030.3 |
| 20260906123054 | 12 | 25 | 0.0 | 4.8 | 0.00 | 0.00 | 0.00 | 64 | 1030.3 |
| 20260906121549 | 11 | 0 | 0.0 | 3.2 | 0.00 | 0.00 | 0.00 | 70 | 1030.3 |
| 20260906120101 | 11 | 0 | 0.0 | 3.2 | 0.00 | 0.00 | 0.00 | 70 | 1030.3 |
| 20260906114555 | 11 | 0 | 0.0 | 3.2 | 0.00 | 0.00 | 0.00 | 70 | 1030.3 |
| 20260906113055 | 11 | 0 | 0.0 | 3.2 | 0.00 | 0.00 | 0.00 | 69 | 1030.6 |
| 20260906111613 | 12 | 25 | 0.0 | 6.4 | 0.00 | 0.00 | 0.00 | 63 | 1030.3 |
| 20260906110059 | 13 | 25 | 3.2 | 9.7 | 0.00 | 0.00 | 0.00 | 62 | 1030.1 |
| 20260906104557 | 13 | 36 | 8.0 | 12.9 | 0.00 | 0.00 | 0.00 | 62 | 1030.1 |
| 20260906103056 | 13 | 33 | 4.8 | 8.0 | 0.00 | 0.00 | 0.00 | 61 | 1030.0 |
| 20260906101553 | 14 | 19 | 4.8 | 8.0 | 0.00 | 0.00 | 0.00 | 60 | 1030.1 |
| 20260906100057 | 14 | 25 | 6.4 | 11.3 | 0.00 | 0.00 | 0.00 | 59 | 1030.1 |
| 20260906094556 | 14 | 21 | 4.8 | 8.0 | 0.00 | 0.00 | 0.00 | 58 | 1030.3 |
| 20260906093103 | 13 | 45 | 4.8 | 11.3 | 0.00 | 0.00 | 0.00 | 59 | 1030.4 |
| 20260906091558 | 14 | 15 | 6.4 | 11.3 | 0.00 | 0.00 | 0.00 | 57 | 1030.3 |
| 20260906084602 | 14 | 31 | 6.4 | 9.7 | 0.00 | 0.00 | 0.00 | 59 | 1030.1 |
| 20260906083100 | 13 | 38 | 4.8 | 9.7 | 0.00 | 0.00 | 0.00 | 60 | 1030.2 |
| 20260906081558 | 14 | 22 | 6.4 | 9.7 | 0.00 | 0.00 | 0.00 | 59 | 1030.3 |
| 20260906074554 | 15 | 17 | 8.0 | 14.5 | 0.00 | 0.00 | 0.00 | 56 | 1030.3 |
| 20260906073057 | 15 | 360 | 11.3 | 16.1 | 0.00 | 0.00 | 0.00 | 56 | 1030.3 |
| 20260906071554 | 15 | 62 | 4.8 | 8.0 | 0.00 | 0.00 | 0.00 | 54 | 1030.3 |
| 20260906070044 | 15 | 5 | 3.2 | 6.4 | 0.00 | 0.00 | 0.00 | 54 | 1030.3 |
| 20260906064554 | 16 | 19 | 4.8 | 11.3 | 0.00 | 0.00 | 0.00 | 53 | 1030.3 |
| 20260906063054 | 16 | 107 | 6.4 | 9.7 | 0.00 | 0.00 | 0.00 | 53 | 1030.3 |
| 20260906061558 | 15 | 26 | 6.4 | 9.7 | 0.00 | 0.00 | 0.00 | 54 | 1030.3 |
| 20260906060052 | 15 | 56 | 8.0 | 14.5 | 0.00 | 0.00 | 0.00 | 54 | 1030.4 |
| 20260906054601 | 16 | 24 | 8.0 | 12.9 | 0.00 | 0.00 | 0.00 | 52 | 1030.5 |
| 20260906053100 | 16 | 0 | 0.0 | 9.7 | 0.00 | 0.00 | 0.00 | 50 | 1030.4 |
| 20260906051610 | 17 | 91 | 3.2 | 11.3 | 0.00 | 0.00 | 0.00 | 48 | 1030.4 |
| 20260906050053 | 17 | 117 | 3.2 | 12.9 | 0.00 | 0.00 | 0.00 | 48 | 1030.5 |
| 20260906044607 | 17 | 95 | 8.0 | 17.7 | 0.00 | 0.00 | 0.00 | 49 | 1030.5 |
| 20260906043053 | 17 | 0 | 0.0 | 4.8 | 0.00 | 0.00 | 0.00 | 50 | 1030.5 |
| 20260906041601 | 17 | 0 | 0.0 | 14.5 | 0.00 | 0.00 | 0.00 | 49 | 1030.6 |
| 20260906040137 | 18 | 0 | 3.2 | 11.3 | 0.00 | 0.00 | 0.00 | 47 | 1030.6 |
| 20260906034605 | 18 | 111 | 8.0 | 11.3 | 0.00 | 0.00 | 0.00 | 46 | 1030.7 |
| 20260906033108 | 18 | 135 | 6.4 | 17.7 | 0.00 | 0.00 | 0.00 | 46 | 1030.7 |
| 20260906031556 | 18 | 103 | 11.3 | 20.9 | 0.00 | 0.00 | 0.00 | 45 | 1030.6 |
| 20260906030100 | 18 | 141 | 4.8 | 20.9 | 0.00 | 0.00 | 0.00 | 45 | 1030.4 |
| 20260906024614 | 18 | 124 | 1.6 | 9.7 | 0.00 | 0.00 | 0.00 | 47 | 1030.3 |
| 20260906023102 | 18 | 101 | 3.2 | 12.9 | 0.00 | 0.00 | 0.00 | 45 | 1030.1 |
| 20260906021558 | 18 | 68 | 3.2 | 12.9 | 0.00 | 0.00 | 0.00 | 45 | 1029.8 |
| 20260906014551 | 18 | 121 | 6.4 | 17.7 | 0.00 | 0.00 | 0.00 | 45 | 1029.4 |
| 20260906013102 | 19 | 84 | 6.4 | 17.7 | 0.00 | 0.00 | 0.00 | 45 | 1029.5 |
| 20260906011555 | 19 | 98 | 8.0 | 16.1 | 0.00 | 0.00 | 0.00 | 45 | 1029.4 |
| 20260906010055 | 19 | 74 | 8.0 | 16.1 | 0.00 | 0.00 | 0.00 | 45 | 1029.4 |
| 20260906004600 | 20 | 98 | 8.0 | 14.5 | 0.00 | 0.00 | 0.00 | 45 | 1029.5 |
| 20260906003059 | 20 | 95 | 14.5 | 24.1 | 0.00 | 0.00 | 0.00 | 43 | 1029.3 |
| 20260906001559 | 21 | 86 | 11.3 | 24.1 | 0.00 | 0.00 | 0.00 | 42 | 1029.3 |
| 20260906000057 | 21 | 90 | 8.0 | 24.1 | 0.00 | 0.00 | 0.00 | 40 | 1029.1 |
| 20260905234601 | 22 | 78 | 8.0 | 16.1 | 0.00 | 0.00 | 0.00 | 40 | 1029.2 |
| 20260905233101 | 21 | 88 | 9.7 | 24.1 | 0.00 | 0.00 | 0.00 | 39 | 1029.2 |
| 20260905231554 | 22 | 90 | 11.3 | 27.4 | 0.00 | 0.00 | 0.00 | 38 | 1029.0 |
| 20260905230105 | 22 | 113 | 11.3 | 29.0 | 0.00 | 0.00 | 0.00 | 35 | 1029.1 |
| 20260905224614 | 22 | 173 | 12.9 | 29.0 | 0.00 | 0.00 | 0.00 | 39 | 1029.1 |
| 20260905223106 | 22 | 173 | 6.4 | 37.0 | 0.00 | 0.00 | 0.00 | 36 | 1029.0 |
| 20260905221550 | 23 | 211 | 3.2 | 12.9 | 0.00 | 0.00 | 0.00 | 30 | 1028.9 |